createdAt,value
2019-03-06T00:02:33.449Z,29.03
2019-03-06T00:06:38.458Z,26.20
2019-03-06T00:10:43.528Z,25.37
2019-03-06T00:14:49.505Z,24.27
2019-03-06T00:18:54.538Z,26.67
2019-03-06T00:22:59.589Z,28.07
2019-03-06T00:27:05.013Z,26.57
2019-03-06T00:31:10.014Z,29.87
2019-03-06T00:35:29.627Z,26.30
2019-03-06T00:39:36.450Z,26.33
2019-03-06T00:43:41.446Z,27.47
2019-03-06T00:47:46.467Z,27.13
2019-03-06T00:51:52.742Z,26.03
2019-03-06T00:55:57.747Z,27.00
2019-03-06T01:00:02.878Z,24.77
2019-03-06T01:04:09.488Z,27.23
2019-03-06T01:08:15.539Z,28.67
2019-03-06T01:12:20.545Z,26.97
2019-03-06T01:16:25.554Z,30.93
2019-03-06T01:20:30.582Z,28.87
2019-03-06T01:24:35.589Z,33.03
2019-03-06T01:28:40.576Z,33.27
2019-03-06T01:32:47.291Z,29.70
2019-03-06T01:36:53.931Z,29.90
2019-03-06T01:41:03.703Z,35.67
2019-03-06T01:45:09.543Z,33.90
2019-03-06T01:49:16.104Z,31.70
2019-03-06T01:53:21.153Z,34.10
2019-03-06T01:57:26.157Z,34.77
2019-03-06T02:01:31.508Z,33.40
2019-03-06T02:05:36.850Z,33.63
2019-03-06T02:09:41.840Z,30.47
2019-03-06T02:13:46.865Z,30.73
2019-03-06T02:17:51.884Z,34.13
2019-03-06T02:21:57.934Z,31.43
2019-03-06T02:26:02.950Z,34.03
2019-03-06T02:30:22.187Z,33.27
2019-03-06T02:34:27.162Z,32.83
2019-03-06T02:38:32.165Z,32.90
2019-03-06T02:42:37.284Z,35.70
2019-03-06T02:46:42.290Z,36.13
2019-03-06T02:50:47.290Z,35.70
2019-03-06T02:54:52.277Z,37.93
2019-03-06T02:58:58.914Z,36.00
2019-03-06T03:03:09.360Z,42.23
2019-03-06T03:07:14.358Z,39.47
2019-03-06T03:11:19.534Z,37.37
2019-03-06T03:15:25.674Z,38.80
2019-03-06T03:19:30.670Z,38.87
2019-03-06T03:23:35.694Z,39.23
2019-03-06T03:27:40.694Z,35.00
2019-03-06T03:31:45.700Z,35.87
2019-03-06T03:35:50.742Z,42.07
2019-03-06T03:39:55.743Z,38.23
2019-03-06T03:44:00.755Z,40.93
2019-03-06T03:48:05.834Z,42.40
2019-03-06T03:52:10.834Z,38.40
2019-03-06T03:56:15.951Z,41.00
2019-03-06T04:00:22.270Z,38.93
2019-03-06T04:04:27.492Z,40.33
2019-03-06T04:08:32.485Z,39.47
2019-03-06T04:12:37.568Z,38.10
2019-03-06T04:16:42.580Z,38.37
2019-03-06T04:20:47.547Z,40.20
2019-03-06T04:24:52.725Z,39.00
2019-03-06T04:28:57.730Z,36.80
2019-03-06T04:33:02.740Z,36.83
2019-03-06T04:37:07.733Z,40.47
2019-03-06T04:41:12.734Z,36.77
2019-03-06T04:45:18.474Z,38.13
2019-03-06T04:49:23.605Z,34.20
2019-03-06T04:53:28.667Z,33.27
2019-03-06T04:57:33.626Z,39.33
2019-03-06T05:01:38.609Z,35.60
2019-03-06T05:05:44.706Z,36.93
2019-03-06T05:09:49.714Z,40.07
2019-03-06T05:13:54.738Z,36.73
2019-03-06T05:18:04.336Z,33.27
2019-03-06T05:22:09.350Z,39.97
2019-03-06T05:26:14.369Z,34.00
2019-03-06T05:30:21.014Z,34.03
2019-03-06T05:34:26.055Z,32.97
2019-03-06T05:38:39.701Z,33.93
2019-03-06T05:42:44.732Z,37.43
2019-03-06T05:46:50.304Z,33.93
2019-03-06T05:50:55.273Z,31.53
2019-03-06T05:55:00.345Z,31.53
2019-03-06T05:59:05.326Z,27.13
2019-03-06T06:03:10.444Z,30.53
2019-03-06T06:07:15.419Z,27.67
2019-03-06T06:11:20.577Z,26.13
2019-03-06T06:15:25.650Z,20.40
2019-03-06T06:19:30.734Z,16.93
2019-03-06T06:23:41.000Z,17.43
2019-03-06T06:27:46.178Z,13.83
2019-03-06T06:31:51.250Z,15.23
2019-03-06T06:35:56.602Z,10.57
2019-03-06T06:40:01.887Z,14.13
2019-03-06T06:44:07.162Z,13.00
2019-03-06T06:48:20.827Z,13.90
2019-03-06T06:52:44.541Z,11.93
2019-03-06T06:57:04.905Z,12.93
2019-03-06T07:01:38.990Z,12.13
2019-03-06T07:05:45.908Z,10.37
2019-03-06T07:10:05.129Z,9.93
2019-03-06T07:14:12.334Z,9.67
2019-03-06T07:18:25.033Z,10.43
2019-03-06T07:22:48.130Z,10.23
2019-03-06T07:27:02.927Z,11.80
2019-03-06T07:31:15.238Z,10.63
2019-03-06T07:36:02.588Z,10.40
2019-03-06T07:40:10.774Z,11.23
2019-03-06T07:44:29.601Z,8.43
2019-03-06T07:48:34.950Z,8.77
2019-03-06T07:52:44.765Z,8.73
2019-03-06T07:56:59.400Z,12.63
2019-03-06T08:01:05.274Z,7.07
2019-03-06T08:05:11.393Z,8.63
2019-03-06T08:09:18.604Z,7.63
2019-03-06T08:13:25.530Z,6.90
2019-03-06T08:17:48.505Z,10.33
2019-03-06T08:22:01.058Z,8.00
2019-03-06T08:26:06.489Z,8.13
2019-03-06T08:30:12.342Z,8.43
2019-03-06T08:34:17.858Z,8.43
2019-03-06T08:38:24.406Z,7.90
2019-03-06T08:42:29.697Z,7.47
2019-03-06T08:46:52.814Z,9.67
2019-03-06T08:50:59.734Z,7.43
2019-03-06T08:55:14.487Z,8.07
2019-03-06T08:59:37.345Z,6.53
2019-03-06T09:03:50.121Z,8.90
2019-03-06T09:08:05.516Z,8.00
2019-03-06T09:12:21.717Z,4.87
2019-03-06T09:16:34.904Z,9.00
2019-03-06T09:20:44.802Z,8.87
2019-03-06T09:24:54.569Z,8.50
2019-03-06T09:29:07.202Z,11.17
2019-03-06T09:33:14.120Z,8.93
2019-03-06T09:37:30.135Z,9.37
2019-03-06T09:41:43.430Z,9.43
2019-03-06T09:46:06.879Z,7.93
2019-03-06T09:50:16.405Z,9.04
2019-03-06T09:54:41.638Z,9.17
2019-03-06T09:58:51.285Z,9.03
2019-03-06T10:03:14.615Z,10.27
2019-03-06T10:07:24.221Z,9.27
2019-03-06T10:11:36.853Z,7.07
2019-03-06T10:15:46.772Z,8.13
2019-03-06T10:19:53.993Z,7.00
2019-03-06T10:24:00.346Z,8.53
2019-03-06T10:32:12.891Z,5.87
2019-03-06T10:36:18.309Z,8.60
2019-03-06T10:40:24.617Z,5.90
2019-03-06T10:44:30.309Z,10.30
2019-03-06T10:48:35.590Z,8.60
2019-03-06T10:52:40.970Z,9.30
2019-03-06T10:56:46.308Z,7.80
2019-03-06T11:00:54.091Z,6.73
2019-03-06T11:05:01.066Z,4.97
2019-03-06T11:09:09.289Z,5.33
2019-03-06T11:13:15.131Z,7.13
2019-03-06T11:17:20.612Z,6.83
2019-03-06T11:21:26.398Z,9.53
2019-03-06T11:25:32.617Z,10.67
2019-03-06T11:29:37.970Z,12.37
2019-03-06T11:33:43.858Z,10.50
2019-03-06T11:37:49.586Z,11.33
2019-03-06T11:41:55.055Z,11.77
2019-03-06T11:46:00.434Z,11.43
2019-03-06T11:50:09.861Z,9.63
2019-03-06T11:54:15.103Z,10.03
2019-03-06T11:58:20.529Z,9.13
2019-03-06T12:02:25.802Z,9.43
2019-03-06T12:06:31.058Z,12.67
2019-03-06T12:10:36.360Z,13.00
2019-03-06T12:14:41.873Z,10.37
2019-03-06T12:18:47.293Z,10.47
2019-03-06T12:22:52.645Z,10.73
2019-03-06T12:26:58.278Z,11.07
2019-03-06T12:31:07.500Z,14.93
2019-03-06T12:35:14.758Z,12.50
2019-03-06T12:39:20.030Z,13.90
2019-03-06T12:43:25.498Z,14.80
2019-03-06T12:47:30.761Z,11.80
2019-03-06T12:51:36.278Z,8.97
2019-03-06T12:55:41.614Z,9.10
2019-03-06T12:59:46.890Z,7.53
2019-03-06T13:03:52.175Z,9.97
2019-03-06T13:07:57.990Z,4.87
2019-03-06T13:12:03.261Z,7.40
2019-03-06T13:16:08.540Z,8.67
2019-03-06T13:20:15.860Z,7.40
2019-03-06T13:24:21.290Z,6.37
2019-03-06T13:28:26.667Z,6.40
2019-03-06T13:32:49.825Z,8.93
2019-03-06T13:36:55.544Z,4.30
2019-03-06T13:41:00.890Z,6.53
2019-03-06T13:45:08.165Z,7.63
2019-03-06T13:49:13.770Z,9.23
2019-03-06T13:53:20.744Z,7.97
2019-03-06T13:57:25.896Z,6.33
2019-03-06T14:01:32.907Z,6.40
2019-03-06T14:05:38.211Z,10.43
2019-03-06T14:09:43.552Z,5.80
2019-03-06T14:13:48.906Z,7.67
2019-03-06T14:17:55.450Z,8.43
2019-03-06T14:22:02.852Z,6.63
2019-03-06T14:26:08.220Z,7.73
2019-03-06T14:30:22.497Z,9.43
2019-03-06T14:34:29.593Z,7.10
2019-03-06T14:38:35.292Z,7.93
2019-03-06T14:42:40.630Z,7.50
2019-03-06T14:46:46.044Z,9.87
2019-03-06T14:50:51.541Z,6.67
2019-03-06T14:54:56.823Z,10.80
2019-03-06T14:59:02.678Z,5.30
2019-03-06T15:03:08.599Z,8.13
2019-03-06T15:07:14.309Z,10.93
2019-03-06T15:11:19.590Z,7.57
2019-03-06T15:15:24.889Z,6.17
2019-03-06T15:19:30.166Z,5.87
2019-03-06T15:23:36.541Z,6.43
2019-03-06T15:27:42.005Z,10.63
2019-03-06T15:31:47.421Z,10.47
2019-03-06T15:35:52.782Z,7.87
2019-03-06T15:39:59.137Z,7.77
2019-03-06T15:44:05.360Z,5.63
2019-03-06T15:48:10.851Z,7.30
2019-03-06T15:52:16.154Z,4.47
2019-03-06T15:56:22.092Z,6.00
2019-03-06T16:00:30.421Z,6.60
2019-03-06T16:04:36.318Z,5.37
2019-03-06T16:08:41.897Z,13.20
2019-03-06T16:12:48.157Z,6.23
2019-03-06T16:16:54.066Z,5.17
2019-03-06T16:20:59.373Z,7.20
2019-03-06T16:25:05.586Z,8.57
2019-03-06T16:29:10.841Z,7.27
2019-03-06T16:33:17.301Z,10.43
2019-03-06T16:37:23.111Z,7.40
2019-03-06T16:41:28.434Z,6.63
2019-03-06T16:45:34.050Z,6.50
2019-03-06T16:49:39.530Z,11.03
2019-03-06T16:53:45.439Z,7.27
2019-03-06T16:57:50.858Z,14.17
2019-03-06T17:01:58.367Z,9.37
2019-03-06T17:06:04.365Z,5.37
2019-03-06T17:10:09.712Z,4.77
2019-03-06T17:14:15.050Z,7.80
2019-03-06T17:18:22.153Z,10.00
2019-03-06T17:22:27.695Z,8.37
2019-03-06T17:26:33.536Z,6.03
2019-03-06T17:30:40.183Z,9.33
2019-03-06T17:34:48.598Z,7.03
2019-03-06T17:38:54.385Z,5.60
2019-03-06T17:42:59.878Z,9.63
2019-03-06T17:47:06.276Z,7.60
2019-03-06T17:51:12.190Z,7.50
2019-03-06T17:55:18.480Z,7.77
2019-03-06T17:59:25.140Z,11.60
2019-03-06T18:03:35.306Z,8.37
2019-03-06T18:07:40.582Z,8.27
2019-03-06T18:11:46.264Z,9.03
2019-03-06T18:15:51.580Z,8.63
2019-03-06T18:19:56.824Z,10.07
2019-03-06T18:24:02.104Z,8.40
2019-03-06T18:28:07.357Z,8.57
2019-03-06T18:32:12.938Z,13.97
2019-03-06T18:36:18.214Z,11.60
2019-03-06T18:40:25.201Z,8.87
2019-03-06T18:44:30.475Z,10.20
2019-03-06T18:48:35.764Z,8.43
2019-03-06T18:52:41.322Z,10.53
2019-03-06T18:56:46.774Z,9.40
2019-03-06T19:00:52.056Z,7.33
2019-03-06T19:04:59.261Z,10.37
2019-03-06T19:09:06.442Z,6.90
2019-03-06T19:13:12.894Z,12.20
2019-03-06T19:17:20.198Z,8.17
2019-03-06T19:21:25.772Z,12.13
2019-03-06T19:25:31.476Z,10.70
2019-03-06T19:29:36.759Z,8.67
2019-03-06T19:33:42.199Z,10.70
2019-03-06T19:37:47.452Z,8.90
2019-03-06T19:41:52.805Z,10.50
2019-03-06T19:45:58.158Z,7.83
2019-03-06T19:50:04.810Z,12.83
2019-03-06T19:54:10.097Z,11.80
2019-03-06T19:58:17.021Z,9.87
2019-03-06T20:02:22.594Z,12.93
2019-03-06T20:06:28.016Z,10.03
2019-03-06T20:10:33.334Z,11.50
2019-03-06T20:14:38.859Z,11.07
2019-03-06T20:18:44.640Z,13.43
2019-03-06T20:22:50.234Z,11.77
2019-03-06T20:26:57.274Z,11.50
2019-03-06T20:31:02.713Z,11.27
2019-03-06T20:35:08.645Z,11.00
2019-03-06T20:39:13.993Z,11.40
2019-03-06T20:43:20.094Z,10.67
2019-03-06T20:47:25.356Z,10.13
2019-03-06T20:51:30.601Z,10.60
2019-03-06T20:55:35.865Z,9.57
2019-03-06T20:59:42.647Z,11.20
2019-03-06T21:03:50.226Z,11.53
2019-03-06T21:07:55.545Z,8.27
2019-03-06T21:12:00.901Z,9.63
2019-03-06T21:16:06.337Z,10.07
2019-03-06T21:20:22.577Z,8.40
2019-03-06T21:24:27.839Z,6.77
2019-03-06T21:28:33.117Z,6.87
2019-03-06T21:32:38.373Z,8.87
2019-03-06T21:36:43.634Z,12.37
2019-03-06T21:40:48.902Z,6.93
2019-03-06T21:44:54.261Z,9.43
2019-03-06T21:48:59.723Z,9.53
2019-03-06T21:57:09.210Z,9.73
2019-03-06T22:01:15.631Z,8.50
2019-03-06T22:05:21.103Z,7.90
2019-03-06T22:09:26.371Z,7.90
2019-03-06T22:13:31.643Z,14.60
2019-03-06T22:17:36.980Z,9.30
2019-03-06T22:21:42.231Z,7.40
2019-03-06T22:25:47.710Z,11.70
2019-03-06T22:29:53.062Z,11.03
2019-03-06T22:33:58.333Z,10.43
2019-03-06T22:38:03.618Z,11.53
2019-03-06T22:42:08.882Z,12.83
2019-03-06T22:46:14.158Z,14.77
2019-03-06T22:50:19.913Z,13.60
2019-03-06T22:54:25.439Z,15.47
2019-03-06T22:58:30.665Z,12.57
2019-03-06T23:02:35.935Z,13.67
2019-03-06T23:06:41.341Z,10.73
2019-03-06T23:10:46.674Z,9.13
2019-03-06T23:14:52.127Z,12.30
2019-03-06T23:18:57.421Z,10.93
2019-03-06T23:23:02.815Z,12.03
2019-03-06T23:27:08.064Z,9.83
2019-03-06T23:31:13.345Z,13.57
2019-03-06T23:35:18.787Z,8.83
2019-03-06T23:39:24.058Z,13.70
2019-03-06T23:43:29.345Z,9.37
2019-03-06T23:47:34.667Z,11.20
2019-03-06T23:51:41.581Z,10.60
2019-03-06T23:55:46.868Z,9.87
2019-03-06T23:59:52.138Z,11.50
